sensor_id;sensor_type;location;lat;lon;timestamp;P1;durP1;ratioP1;P2;durP2;ratioP2
14975;SDS011;7584;60.468;25.126;2022-10-13T00:01:16;2.77;;;1.47;;
14975;SDS011;7584;60.468;25.126;2022-10-13T00:03:41;2.80;;;1.50;;
14975;SDS011;7584;60.468;25.126;2022-10-13T00:06:11;6.60;;;1.33;;
14975;SDS011;7584;60.468;25.126;2022-10-13T00:08:36;2.10;;;1.40;;
14975;SDS011;7584;60.468;25.126;2022-10-13T00:11:07;3.17;;;1.40;;
14975;SDS011;7584;60.468;25.126;2022-10-13T00:13:33;3.60;;;1.43;;
14975;SDS011;7584;60.468;25.126;2022-10-13T00:16:00;2.07;;;1.50;;
14975;SDS011;7584;60.468;25.126;2022-10-13T00:18:26;2.50;;;1.50;;
14975;SDS011;7584;60.468;25.126;2022-10-13T00:20:51;4.03;;;1.70;;
14975;SDS011;7584;60.468;25.126;2022-10-13T00:23:16;3.13;;;1.57;;
14975;SDS011;7584;60.468;25.126;2022-10-13T00:25:43;3.73;;;1.20;;
14975;SDS011;7584;60.468;25.126;2022-10-13T00:28:08;2.00;;;1.37;;
14975;SDS011;7584;60.468;25.126;2022-10-13T00:30:34;2.33;;;1.23;;
14975;SDS011;7584;60.468;25.126;2022-10-13T00:33:00;3.03;;;1.83;;
14975;SDS011;7584;60.468;25.126;2022-10-13T00:35:25;2.47;;;1.30;;
14975;SDS011;7584;60.468;25.126;2022-10-13T00:37:50;4.67;;;1.57;;
14975;SDS011;7584;60.468;25.126;2022-10-13T00:40:17;2.30;;;1.60;;
14975;SDS011;7584;60.468;25.126;2022-10-13T00:42:42;2.10;;;1.30;;
14975;SDS011;7584;60.468;25.126;2022-10-13T00:47:49;3.90;;;1.80;;
14975;SDS011;7584;60.468;25.126;2022-10-13T00:50:17;1.60;;;1.43;;
14975;SDS011;7584;60.468;25.126;2022-10-13T00:52:43;3.87;;;1.50;;
14975;SDS011;7584;60.468;25.126;2022-10-13T00:55:09;2.70;;;1.63;;
14975;SDS011;7584;60.468;25.126;2022-10-13T00:57:36;2.70;;;1.50;;
14975;SDS011;7584;60.468;25.126;2022-10-13T01:00:03;2.23;;;1.50;;
14975;SDS011;7584;60.468;25.126;2022-10-13T01:02:30;2.30;;;1.73;;
14975;SDS011;7584;60.468;25.126;2022-10-13T01:04:56;2.93;;;1.47;;
14975;SDS011;7584;60.468;25.126;2022-10-13T01:07:22;5.20;;;1.67;;
14975;SDS011;7584;60.468;25.126;2022-10-13T01:09:47;2.40;;;1.47;;
14975;SDS011;7584;60.468;25.126;2022-10-13T01:24:42;3.13;;;1.73;;
14975;SDS011;7584;60.468;25.126;2022-10-13T01:39:34;4.37;;;1.47;;
14975;SDS011;7584;60.468;25.126;2022-10-13T01:42:03;2.50;;;1.83;;
14975;SDS011;7584;60.468;25.126;2022-10-13T01:44:36;4.87;;;2.30;;
14975;SDS011;7584;60.468;25.126;2022-10-13T01:47:03;3.20;;;1.50;;
14975;SDS011;7584;60.468;25.126;2022-10-13T01:49:31;3.10;;;1.90;;
14975;SDS011;7584;60.468;25.126;2022-10-13T01:51:59;4.33;;;1.97;;
14975;SDS011;7584;60.468;25.126;2022-10-13T01:54:25;5.03;;;1.50;;
14975;SDS011;7584;60.468;25.126;2022-10-13T01:56:54;3.40;;;1.73;;
14975;SDS011;7584;60.468;25.126;2022-10-13T01:59:20;5.73;;;1.70;;
14975;SDS011;7584;60.468;25.126;2022-10-13T02:11:46;3.87;;;1.67;;
14975;SDS011;7584;60.468;25.126;2022-10-13T02:14:15;4.63;;;1.97;;
14975;SDS011;7584;60.468;25.126;2022-10-13T02:16:42;2.50;;;1.90;;
14975;SDS011;7584;60.468;25.126;2022-10-13T02:19:10;3.40;;;1.77;;
14975;SDS011;7584;60.468;25.126;2022-10-13T02:21:36;6.00;;;2.30;;
14975;SDS011;7584;60.468;25.126;2022-10-13T02:24:04;2.73;;;1.80;;
14975;SDS011;7584;60.468;25.126;2022-10-13T02:26:31;3.63;;;2.37;;
14975;SDS011;7584;60.468;25.126;2022-10-13T02:28:57;4.77;;;2.10;;
14975;SDS011;7584;60.468;25.126;2022-10-13T02:31:22;7.47;;;2.17;;
14975;SDS011;7584;60.468;25.126;2022-10-13T02:33:48;3.60;;;1.70;;
14975;SDS011;7584;60.468;25.126;2022-10-13T02:36:13;9.63;;;2.03;;
14975;SDS011;7584;60.468;25.126;2022-10-13T02:38:38;1.87;;;1.60;;
14975;SDS011;7584;60.468;25.126;2022-10-13T02:41:03;4.03;;;2.07;;
14975;SDS011;7584;60.468;25.126;2022-10-13T02:43:29;2.33;;;1.90;;
14975;SDS011;7584;60.468;25.126;2022-10-13T02:45:54;3.73;;;2.37;;
14975;SDS011;7584;60.468;25.126;2022-10-13T02:48:19;3.97;;;2.37;;
14975;SDS011;7584;60.468;25.126;2022-10-13T02:50:45;4.67;;;2.40;;
14975;SDS011;7584;60.468;25.126;2022-10-13T02:53:10;4.73;;;3.03;;
14975;SDS011;7584;60.468;25.126;2022-10-13T02:55:36;9.60;;;4.83;;
14975;SDS011;7584;60.468;25.126;2022-10-13T02:58:01;13.27;;;6.00;;
14975;SDS011;7584;60.468;25.126;2022-10-13T03:00:26;17.93;;;8.13;;
14975;SDS011;7584;60.468;25.126;2022-10-13T03:02:51;14.93;;;6.23;;
14975;SDS011;7584;60.468;25.126;2022-10-13T03:05:18;11.20;;;5.77;;
14975;SDS011;7584;60.468;25.126;2022-10-13T03:07:43;17.83;;;6.70;;
14975;SDS011;7584;60.468;25.126;2022-10-13T03:10:08;19.20;;;7.97;;
14975;SDS011;7584;60.468;25.126;2022-10-13T03:12:33;18.47;;;6.43;;
14975;SDS011;7584;60.468;25.126;2022-10-13T03:14:59;14.13;;;5.47;;
14975;SDS011;7584;60.468;25.126;2022-10-13T03:17:24;16.77;;;4.97;;
14975;SDS011;7584;60.468;25.126;2022-10-13T03:19:49;10.00;;;5.40;;
14975;SDS011;7584;60.468;25.126;2022-10-13T03:22:15;14.10;;;5.37;;
14975;SDS011;7584;60.468;25.126;2022-10-13T03:24:40;11.63;;;4.27;;
14975;SDS011;7584;60.468;25.126;2022-10-13T03:27:06;10.37;;;4.10;;
14975;SDS011;7584;60.468;25.126;2022-10-13T03:29:31;7.43;;;3.80;;
14975;SDS011;7584;60.468;25.126;2022-10-13T03:31:56;7.87;;;3.50;;
14975;SDS011;7584;60.468;25.126;2022-10-13T03:34:21;7.47;;;4.00;;
14975;SDS011;7584;60.468;25.126;2022-10-13T03:36:47;8.13;;;3.43;;
14975;SDS011;7584;60.468;25.126;2022-10-13T03:39:12;6.97;;;3.40;;
14975;SDS011;7584;60.468;25.126;2022-10-13T03:41:38;4.07;;;2.80;;
14975;SDS011;7584;60.468;25.126;2022-10-13T03:44:03;10.53;;;2.83;;
14975;SDS011;7584;60.468;25.126;2022-10-13T03:46:29;9.77;;;3.03;;
14975;SDS011;7584;60.468;25.126;2022-10-13T03:48:54;6.37;;;2.90;;
14975;SDS011;7584;60.468;25.126;2022-10-13T03:51:20;7.00;;;2.80;;
14975;SDS011;7584;60.468;25.126;2022-10-13T03:53:46;5.37;;;2.50;;
14975;SDS011;7584;60.468;25.126;2022-10-13T03:56:16;9.33;;;2.77;;
14975;SDS011;7584;60.468;25.126;2022-10-13T03:58:42;5.93;;;2.63;;
14975;SDS011;7584;60.468;25.126;2022-10-13T04:01:07;4.47;;;2.83;;
14975;SDS011;7584;60.468;25.126;2022-10-13T04:03:33;4.37;;;2.87;;
14975;SDS011;7584;60.468;25.126;2022-10-13T04:05:59;9.90;;;2.70;;
14975;SDS011;7584;60.468;25.126;2022-10-13T04:08:25;3.77;;;2.30;;
14975;SDS011;7584;60.468;25.126;2022-10-13T04:10:57;4.20;;;2.50;;
14975;SDS011;7584;60.468;25.126;2022-10-13T04:13:22;7.37;;;2.80;;
14975;SDS011;7584;60.468;25.126;2022-10-13T04:15:47;7.07;;;2.87;;
14975;SDS011;7584;60.468;25.126;2022-10-13T04:18:13;7.07;;;2.67;;
14975;SDS011;7584;60.468;25.126;2022-10-13T04:20:38;7.23;;;2.90;;
14975;SDS011;7584;60.468;25.126;2022-10-13T04:23:04;7.40;;;2.63;;
14975;SDS011;7584;60.468;25.126;2022-10-13T04:25:30;6.27;;;2.53;;
14975;SDS011;7584;60.468;25.126;2022-10-13T04:27:55;7.67;;;2.63;;
14975;SDS011;7584;60.468;25.126;2022-10-13T04:30:20;7.67;;;2.93;;
14975;SDS011;7584;60.468;25.126;2022-10-13T04:32:45;5.10;;;2.93;;
14975;SDS011;7584;60.468;25.126;2022-10-13T04:35:11;5.37;;;3.00;;
14975;SDS011;7584;60.468;25.126;2022-10-13T04:37:36;6.43;;;3.13;;
14975;SDS011;7584;60.468;25.126;2022-10-13T04:40:01;8.17;;;3.17;;
14975;SDS011;7584;60.468;25.126;2022-10-13T04:42:27;5.47;;;2.70;;
14975;SDS011;7584;60.468;25.126;2022-10-13T04:44:53;5.10;;;2.40;;
14975;SDS011;7584;60.468;25.126;2022-10-13T04:47:18;6.33;;;2.73;;
14975;SDS011;7584;60.468;25.126;2022-10-13T04:49:44;8.90;;;2.83;;
14975;SDS011;7584;60.468;25.126;2022-10-13T04:52:09;5.60;;;2.70;;
14975;SDS011;7584;60.468;25.126;2022-10-13T04:54:34;7.03;;;2.90;;
14975;SDS011;7584;60.468;25.126;2022-10-13T04:57:00;8.83;;;2.23;;
14975;SDS011;7584;60.468;25.126;2022-10-13T04:59:25;8.27;;;2.97;;
14975;SDS011;7584;60.468;25.126;2022-10-13T05:01:50;12.90;;;3.17;;
14975;SDS011;7584;60.468;25.126;2022-10-13T05:04:15;8.43;;;2.90;;
14975;SDS011;7584;60.468;25.126;2022-10-13T05:06:41;6.73;;;2.40;;
14975;SDS011;7584;60.468;25.126;2022-10-13T05:09:08;7.87;;;2.97;;
14975;SDS011;7584;60.468;25.126;2022-10-13T05:11:33;9.07;;;2.60;;
14975;SDS011;7584;60.468;25.126;2022-10-13T05:13:58;4.70;;;2.30;;
14975;SDS011;7584;60.468;25.126;2022-10-13T05:16:25;8.67;;;2.73;;
14975;SDS011;7584;60.468;25.126;2022-10-13T05:18:53;6.40;;;2.70;;
14975;SDS011;7584;60.468;25.126;2022-10-13T05:21:20;6.37;;;2.70;;
14975;SDS011;7584;60.468;25.126;2022-10-13T05:23:46;8.90;;;2.60;;
14975;SDS011;7584;60.468;25.126;2022-10-13T05:26:13;14.77;;;3.27;;
14975;SDS011;7584;60.468;25.126;2022-10-13T05:28:38;11.40;;;2.87;;
14975;SDS011;7584;60.468;25.126;2022-10-13T05:31:22;8.03;;;2.77;;
14975;SDS011;7584;60.468;25.126;2022-10-13T05:33:47;5.80;;;3.20;;
14975;SDS011;7584;60.468;25.126;2022-10-13T05:36:14;7.90;;;3.13;;
14975;SDS011;7584;60.468;25.126;2022-10-13T05:38:40;15.63;;;3.60;;
14975;SDS011;7584;60.468;25.126;2022-10-13T05:41:07;7.23;;;2.87;;
14975;SDS011;7584;60.468;25.126;2022-10-13T05:43:32;11.10;;;3.50;;
14975;SDS011;7584;60.468;25.126;2022-10-13T05:45:58;7.20;;;2.57;;
14975;SDS011;7584;60.468;25.126;2022-10-13T05:48:24;8.47;;;2.67;;
14975;SDS011;7584;60.468;25.126;2022-10-13T05:50:49;16.13;;;2.90;;
14975;SDS011;7584;60.468;25.126;2022-10-13T05:53:15;6.60;;;2.57;;
14975;SDS011;7584;60.468;25.126;2022-10-13T05:55:40;7.77;;;2.43;;
14975;SDS011;7584;60.468;25.126;2022-10-13T05:58:05;13.00;;;2.73;;
14975;SDS011;7584;60.468;25.126;2022-10-13T06:00:31;4.97;;;2.63;;
14975;SDS011;7584;60.468;25.126;2022-10-13T06:05:22;8.03;;;3.10;;
14975;SDS011;7584;60.468;25.126;2022-10-13T06:07:48;9.07;;;3.40;;
14975;SDS011;7584;60.468;25.126;2022-10-13T06:10:13;14.57;;;4.33;;
14975;SDS011;7584;60.468;25.126;2022-10-13T06:12:39;6.30;;;3.43;;
14975;SDS011;7584;60.468;25.126;2022-10-13T06:15:04;5.07;;;2.80;;
14975;SDS011;7584;60.468;25.126;2022-10-13T06:17:30;4.90;;;2.47;;
14975;SDS011;7584;60.468;25.126;2022-10-13T06:19:55;6.67;;;3.10;;
14975;SDS011;7584;60.468;25.126;2022-10-13T06:22:20;9.63;;;2.97;;
14975;SDS011;7584;60.468;25.126;2022-10-13T06:24:46;4.30;;;2.60;;
14975;SDS011;7584;60.468;25.126;2022-10-13T06:27:11;6.93;;;3.37;;
14975;SDS011;7584;60.468;25.126;2022-10-13T06:29:36;7.83;;;3.33;;
14975;SDS011;7584;60.468;25.126;2022-10-13T06:32:02;11.33;;;4.13;;
14975;SDS011;7584;60.468;25.126;2022-10-13T06:34:27;10.93;;;3.13;;
14975;SDS011;7584;60.468;25.126;2022-10-13T06:36:52;6.93;;;3.40;;
14975;SDS011;7584;60.468;25.126;2022-10-13T06:39:18;8.70;;;3.17;;
14975;SDS011;7584;60.468;25.126;2022-10-13T06:41:43;6.97;;;3.30;;
14975;SDS011;7584;60.468;25.126;2022-10-13T06:44:08;8.60;;;2.87;;
14975;SDS011;7584;60.468;25.126;2022-10-13T06:46:35;8.03;;;3.03;;
14975;SDS011;7584;60.468;25.126;2022-10-13T06:49:00;9.53;;;3.60;;
14975;SDS011;7584;60.468;25.126;2022-10-13T06:51:26;11.60;;;3.40;;
14975;SDS011;7584;60.468;25.126;2022-10-13T06:53:51;9.60;;;3.50;;
14975;SDS011;7584;60.468;25.126;2022-10-13T06:56:16;16.93;;;3.80;;
14975;SDS011;7584;60.468;25.126;2022-10-13T06:58:42;10.73;;;3.20;;
14975;SDS011;7584;60.468;25.126;2022-10-13T07:01:09;16.87;;;3.50;;
14975;SDS011;7584;60.468;25.126;2022-10-13T07:03:36;7.00;;;2.97;;
14975;SDS011;7584;60.468;25.126;2022-10-13T07:06:02;9.73;;;3.67;;
14975;SDS011;7584;60.468;25.126;2022-10-13T07:08:28;6.30;;;2.90;;
14975;SDS011;7584;60.468;25.126;2022-10-13T07:10:53;8.27;;;2.70;;
14975;SDS011;7584;60.468;25.126;2022-10-13T07:13:18;11.63;;;3.00;;
14975;SDS011;7584;60.468;25.126;2022-10-13T07:15:44;11.57;;;2.90;;
14975;SDS011;7584;60.468;25.126;2022-10-13T07:18:09;7.60;;;3.23;;
14975;SDS011;7584;60.468;25.126;2022-10-13T07:20:34;8.27;;;3.77;;
14975;SDS011;7584;60.468;25.126;2022-10-13T07:23:00;9.23;;;3.73;;
14975;SDS011;7584;60.468;25.126;2022-10-13T07:25:25;7.83;;;3.00;;
14975;SDS011;7584;60.468;25.126;2022-10-13T07:27:51;11.53;;;3.67;;
14975;SDS011;7584;60.468;25.126;2022-10-13T07:30:16;8.53;;;3.40;;
14975;SDS011;7584;60.468;25.126;2022-10-13T07:32:42;9.47;;;3.77;;
14975;SDS011;7584;60.468;25.126;2022-10-13T07:35:08;8.13;;;2.90;;
14975;SDS011;7584;60.468;25.126;2022-10-13T07:37:34;4.33;;;2.60;;
14975;SDS011;7584;60.468;25.126;2022-10-13T07:39:59;5.43;;;2.63;;
14975;SDS011;7584;60.468;25.126;2022-10-13T07:42:25;5.43;;;2.60;;
14975;SDS011;7584;60.468;25.126;2022-10-13T07:44:50;6.03;;;2.70;;
14975;SDS011;7584;60.468;25.126;2022-10-13T07:47:15;9.53;;;3.17;;
14975;SDS011;7584;60.468;25.126;2022-10-13T07:49:41;6.53;;;2.30;;
14975;SDS011;7584;60.468;25.126;2022-10-13T07:52:06;4.47;;;2.13;;
14975;SDS011;7584;60.468;25.126;2022-10-13T07:54:31;2.83;;;1.83;;
14975;SDS011;7584;60.468;25.126;2022-10-13T07:56:57;5.17;;;2.33;;
14975;SDS011;7584;60.468;25.126;2022-10-13T07:59:22;4.43;;;1.77;;
14975;SDS011;7584;60.468;25.126;2022-10-13T08:01:48;4.50;;;1.73;;
14975;SDS011;7584;60.468;25.126;2022-10-13T08:04:13;5.47;;;1.70;;
14975;SDS011;7584;60.468;25.126;2022-10-13T08:06:38;2.90;;;1.60;;
14975;SDS011;7584;60.468;25.126;2022-10-13T08:09:03;2.90;;;1.93;;
14975;SDS011;7584;60.468;25.126;2022-10-13T08:11:29;3.23;;;1.50;;
14975;SDS011;7584;60.468;25.126;2022-10-13T08:13:55;4.07;;;1.20;;
14975;SDS011;7584;60.468;25.126;2022-10-13T08:16:24;2.93;;;1.33;;
14975;SDS011;7584;60.468;25.126;2022-10-13T08:18:50;4.67;;;1.57;;
14975;SDS011;7584;60.468;25.126;2022-10-13T08:21:15;1.80;;;1.00;;
14975;SDS011;7584;60.468;25.126;2022-10-13T08:23:44;4.40;;;1.20;;
14975;SDS011;7584;60.468;25.126;2022-10-13T08:26:26;2.90;;;1.10;;
14975;SDS011;7584;60.468;25.126;2022-10-13T08:28:52;2.13;;;0.90;;
14975;SDS011;7584;60.468;25.126;2022-10-13T08:31:18;2.23;;;1.20;;
14975;SDS011;7584;60.468;25.126;2022-10-13T08:33:43;5.23;;;1.17;;
14975;SDS011;7584;60.468;25.126;2022-10-13T08:36:11;2.00;;;0.90;;
14975;SDS011;7584;60.468;25.126;2022-10-13T08:38:37;2.50;;;0.87;;
14975;SDS011;7584;60.468;25.126;2022-10-13T08:41:02;3.27;;;1.00;;
14975;SDS011;7584;60.468;25.126;2022-10-13T08:43:36;3.60;;;1.00;;
14975;SDS011;7584;60.468;25.126;2022-10-13T08:46:01;4.30;;;1.20;;
14975;SDS011;7584;60.468;25.126;2022-10-13T08:48:28;2.60;;;0.90;;
14975;SDS011;7584;60.468;25.126;2022-10-13T08:50:56;3.67;;;0.90;;
14975;SDS011;7584;60.468;25.126;2022-10-13T08:53:36;2.13;;;0.90;;
14975;SDS011;7584;60.468;25.126;2022-10-13T08:56:06;3.90;;;1.00;;
14975;SDS011;7584;60.468;25.126;2022-10-13T08:58:33;3.67;;;1.10;;
14975;SDS011;7584;60.468;25.126;2022-10-13T09:03:30;2.87;;;0.97;;
14975;SDS011;7584;60.468;25.126;2022-10-13T09:06:04;3.57;;;1.53;;
14975;SDS011;7584;60.468;25.126;2022-10-13T09:08:55;3.00;;;1.27;;
14975;SDS011;7584;60.468;25.126;2022-10-13T09:11:19;1.07;;;0.70;;
14975;SDS011;7584;60.468;25.126;2022-10-13T09:13:44;0.77;;;0.47;;
14975;SDS011;7584;60.468;25.126;2022-10-13T09:16:09;2.70;;;0.93;;
14975;SDS011;7584;60.468;25.126;2022-10-13T09:18:35;3.47;;;1.00;;
14975;SDS011;7584;60.468;25.126;2022-10-13T09:21:08;1.87;;;0.60;;
14975;SDS011;7584;60.468;25.126;2022-10-13T09:23:34;1.80;;;0.80;;
14975;SDS011;7584;60.468;25.126;2022-10-13T09:25:59;3.73;;;0.70;;
14975;SDS011;7584;60.468;25.126;2022-10-13T09:28:33;2.53;;;0.60;;
14975;SDS011;7584;60.468;25.126;2022-10-13T09:33:34;1.57;;;0.60;;
14975;SDS011;7584;60.468;25.126;2022-10-13T09:38:26;2.83;;;0.70;;
14975;SDS011;7584;60.468;25.126;2022-10-13T09:43:27;3.30;;;0.90;;
14975;SDS011;7584;60.468;25.126;2022-10-13T09:45:52;1.77;;;0.80;;
14975;SDS011;7584;60.468;25.126;2022-10-13T09:48:20;4.60;;;0.70;;
14975;SDS011;7584;60.468;25.126;2022-10-13T09:50:47;4.77;;;0.97;;
14975;SDS011;7584;60.468;25.126;2022-10-13T09:53:32;5.27;;;0.97;;
14975;SDS011;7584;60.468;25.126;2022-10-13T09:58:33;2.00;;;0.67;;
14975;SDS011;7584;60.468;25.126;2022-10-13T10:01:00;2.20;;;0.80;;
14975;SDS011;7584;60.468;25.126;2022-10-13T10:03:30;2.37;;;0.70;;
14975;SDS011;7584;60.468;25.126;2022-10-13T10:06:00;4.33;;;0.80;;
14975;SDS011;7584;60.468;25.126;2022-10-13T10:11:24;3.13;;;0.90;;
14975;SDS011;7584;60.468;25.126;2022-10-13T10:13:51;4.37;;;0.80;;
14975;SDS011;7584;60.468;25.126;2022-10-13T10:21:08;2.17;;;0.70;;
14975;SDS011;7584;60.468;25.126;2022-10-13T10:23:38;5.40;;;0.90;;
14975;SDS011;7584;60.468;25.126;2022-10-13T10:31:12;3.77;;;0.90;;
14975;SDS011;7584;60.468;25.126;2022-10-13T10:36:47;3.30;;;0.67;;
14975;SDS011;7584;60.468;25.126;2022-10-13T10:39:30;2.87;;;0.73;;
14975;SDS011;7584;60.468;25.126;2022-10-13T10:42:08;4.70;;;1.07;;
14975;SDS011;7584;60.468;25.126;2022-10-13T10:44:42;4.40;;;1.00;;
14975;SDS011;7584;60.468;25.126;2022-10-13T10:47:20;4.60;;;1.00;;
14975;SDS011;7584;60.468;25.126;2022-10-13T10:49:47;2.07;;;0.80;;
14975;SDS011;7584;60.468;25.126;2022-10-13T10:52:19;6.67;;;0.87;;
14975;SDS011;7584;60.468;25.126;2022-10-13T10:54:48;5.60;;;1.20;;
14975;SDS011;7584;60.468;25.126;2022-10-13T11:05:04;3.90;;;1.00;;
14975;SDS011;7584;60.468;25.126;2022-10-13T11:17:27;4.47;;;1.07;;
14975;SDS011;7584;60.468;25.126;2022-10-13T11:19:53;5.73;;;1.23;;
14975;SDS011;7584;60.468;25.126;2022-10-13T11:22:20;6.53;;;1.00;;
14975;SDS011;7584;60.468;25.126;2022-10-13T11:32:36;2.77;;;0.73;;
14975;SDS011;7584;60.468;25.126;2022-10-13T11:40:24;3.00;;;1.40;;
14975;SDS011;7584;60.468;25.126;2022-10-13T11:50:28;5.80;;;1.00;;
14975;SDS011;7584;60.468;25.126;2022-10-13T11:53:18;8.07;;;1.50;;
14975;SDS011;7584;60.468;25.126;2022-10-13T12:01:00;5.90;;;1.30;;
14975;SDS011;7584;60.468;25.126;2022-10-13T12:05:54;2.77;;;0.93;;
14975;SDS011;7584;60.468;25.126;2022-10-13T12:08:21;3.80;;;1.00;;
14975;SDS011;7584;60.468;25.126;2022-10-13T12:10:50;4.43;;;0.90;;
14975;SDS011;7584;60.468;25.126;2022-10-13T12:13:26;3.03;;;0.97;;
14975;SDS011;7584;60.468;25.126;2022-10-13T12:15:56;6.00;;;1.03;;
14975;SDS011;7584;60.468;25.126;2022-10-13T12:18:31;3.83;;;1.20;;
14975;SDS011;7584;60.468;25.126;2022-10-13T12:20:59;4.67;;;0.90;;
14975;SDS011;7584;60.468;25.126;2022-10-13T12:23:25;3.63;;;1.17;;
14975;SDS011;7584;60.468;25.126;2022-10-13T12:25:51;3.53;;;1.20;;
14975;SDS011;7584;60.468;25.126;2022-10-13T12:28:21;2.47;;;0.93;;
14975;SDS011;7584;60.468;25.126;2022-10-13T12:30:54;5.10;;;1.23;;
14975;SDS011;7584;60.468;25.126;2022-10-13T12:33:30;5.07;;;1.30;;
14975;SDS011;7584;60.468;25.126;2022-10-13T12:36:09;6.47;;;1.50;;
14975;SDS011;7584;60.468;25.126;2022-10-13T12:38:36;5.60;;;1.40;;
14975;SDS011;7584;60.468;25.126;2022-10-13T12:41:01;3.80;;;0.90;;
14975;SDS011;7584;60.468;25.126;2022-10-13T12:43:27;6.00;;;1.33;;
14975;SDS011;7584;60.468;25.126;2022-10-13T12:45:52;4.10;;;1.00;;
14975;SDS011;7584;60.468;25.126;2022-10-13T12:48:28;5.47;;;1.40;;
14975;SDS011;7584;60.468;25.126;2022-10-13T12:50:53;3.13;;;1.30;;
14975;SDS011;7584;60.468;25.126;2022-10-13T12:53:25;6.27;;;1.17;;
14975;SDS011;7584;60.468;25.126;2022-10-13T12:55:56;4.00;;;1.07;;
14975;SDS011;7584;60.468;25.126;2022-10-13T12:58:32;4.57;;;1.10;;
14975;SDS011;7584;60.468;25.126;2022-10-13T13:03:32;3.77;;;1.20;;
14975;SDS011;7584;60.468;25.126;2022-10-13T13:06:08;3.77;;;1.00;;
14975;SDS011;7584;60.468;25.126;2022-10-13T13:08:33;10.23;;;1.23;;
14975;SDS011;7584;60.468;25.126;2022-10-13T13:11:00;3.13;;;1.27;;
14975;SDS011;7584;60.468;25.126;2022-10-13T13:13:25;2.93;;;1.17;;
14975;SDS011;7584;60.468;25.126;2022-10-13T13:15:51;6.73;;;1.53;;
14975;SDS011;7584;60.468;25.126;2022-10-13T13:20:52;6.13;;;2.30;;
14975;SDS011;7584;60.468;25.126;2022-10-13T13:23:17;7.80;;;2.77;;
14975;SDS011;7584;60.468;25.126;2022-10-13T13:25:47;8.43;;;2.20;;
14975;SDS011;7584;60.468;25.126;2022-10-13T13:28:13;10.97;;;2.03;;
14975;SDS011;7584;60.468;25.126;2022-10-13T13:30:39;4.43;;;1.80;;
14975;SDS011;7584;60.468;25.126;2022-10-13T13:33:05;6.13;;;2.27;;
14975;SDS011;7584;60.468;25.126;2022-10-13T13:35:30;8.17;;;1.90;;
14975;SDS011;7584;60.468;25.126;2022-10-13T13:37:56;7.53;;;2.03;;
14975;SDS011;7584;60.468;25.126;2022-10-13T13:40:22;8.13;;;1.50;;
14975;SDS011;7584;60.468;25.126;2022-10-13T13:42:47;6.77;;;1.23;;
14975;SDS011;7584;60.468;25.126;2022-10-13T13:45:13;3.33;;;1.47;;
14975;SDS011;7584;60.468;25.126;2022-10-13T13:47:39;6.43;;;1.67;;
14975;SDS011;7584;60.468;25.126;2022-10-13T13:50:08;6.87;;;1.60;;
14975;SDS011;7584;60.468;25.126;2022-10-13T13:52:37;7.47;;;1.57;;
14975;SDS011;7584;60.468;25.126;2022-10-13T13:55:02;7.17;;;1.57;;
14975;SDS011;7584;60.468;25.126;2022-10-13T13:57:28;4.27;;;1.37;;
14975;SDS011;7584;60.468;25.126;2022-10-13T13:59:53;3.70;;;1.43;;
14975;SDS011;7584;60.468;25.126;2022-10-13T14:02:19;7.70;;;2.23;;
14975;SDS011;7584;60.468;25.126;2022-10-13T14:04:45;4.27;;;1.57;;
14975;SDS011;7584;60.468;25.126;2022-10-13T14:07:11;6.87;;;2.20;;
14975;SDS011;7584;60.468;25.126;2022-10-13T14:09:36;7.40;;;1.70;;
14975;SDS011;7584;60.468;25.126;2022-10-13T14:12:02;6.90;;;2.17;;
14975;SDS011;7584;60.468;25.126;2022-10-13T14:14:29;9.07;;;2.43;;
14975;SDS011;7584;60.468;25.126;2022-10-13T14:16:54;8.47;;;2.47;;
14975;SDS011;7584;60.468;25.126;2022-10-13T14:19:19;6.47;;;1.83;;
14975;SDS011;7584;60.468;25.126;2022-10-13T14:21:45;5.30;;;2.20;;
14975;SDS011;7584;60.468;25.126;2022-10-13T14:24:10;4.93;;;1.70;;
14975;SDS011;7584;60.468;25.126;2022-10-13T14:26:35;6.17;;;2.60;;
14975;SDS011;7584;60.468;25.126;2022-10-13T14:29:01;6.47;;;2.70;;
14975;SDS011;7584;60.468;25.126;2022-10-13T14:31:26;6.17;;;2.70;;
14975;SDS011;7584;60.468;25.126;2022-10-13T14:33:51;5.93;;;1.90;;
14975;SDS011;7584;60.468;25.126;2022-10-13T14:36:17;6.83;;;2.00;;
14975;SDS011;7584;60.468;25.126;2022-10-13T14:38:42;5.67;;;1.50;;
14975;SDS011;7584;60.468;25.126;2022-10-13T14:41:07;5.57;;;1.60;;
14975;SDS011;7584;60.468;25.126;2022-10-13T14:43:33;6.87;;;1.50;;
14975;SDS011;7584;60.468;25.126;2022-10-13T14:46:01;5.10;;;1.43;;
14975;SDS011;7584;60.468;25.126;2022-10-13T14:48:29;5.17;;;1.97;;
14975;SDS011;7584;60.468;25.126;2022-10-13T14:50:54;4.53;;;2.00;;
14975;SDS011;7584;60.468;25.126;2022-10-13T14:53:19;10.13;;;1.60;;
14975;SDS011;7584;60.468;25.126;2022-10-13T14:55:44;6.70;;;2.00;;
14975;SDS011;7584;60.468;25.126;2022-10-13T14:58:10;8.23;;;2.57;;
14975;SDS011;7584;60.468;25.126;2022-10-13T15:00:36;5.40;;;1.97;;
14975;SDS011;7584;60.468;25.126;2022-10-13T15:03:01;6.10;;;1.93;;
14975;SDS011;7584;60.468;25.126;2022-10-13T15:05:27;3.93;;;1.37;;
14975;SDS011;7584;60.468;25.126;2022-10-13T15:07:52;8.90;;;2.40;;
14975;SDS011;7584;60.468;25.126;2022-10-13T15:10:18;5.50;;;1.50;;
14975;SDS011;7584;60.468;25.126;2022-10-13T15:12:43;4.87;;;1.93;;
14975;SDS011;7584;60.468;25.126;2022-10-13T15:15:08;5.90;;;1.97;;
14975;SDS011;7584;60.468;25.126;2022-10-13T15:17:34;5.50;;;1.83;;
14975;SDS011;7584;60.468;25.126;2022-10-13T15:20:00;6.40;;;2.10;;
14975;SDS011;7584;60.468;25.126;2022-10-13T15:22:26;5.07;;;1.97;;
14975;SDS011;7584;60.468;25.126;2022-10-13T15:24:51;4.77;;;1.53;;
14975;SDS011;7584;60.468;25.126;2022-10-13T15:27:16;9.73;;;1.73;;
14975;SDS011;7584;60.468;25.126;2022-10-13T15:29:42;7.17;;;1.80;;
14975;SDS011;7584;60.468;25.126;2022-10-13T15:32:08;7.07;;;1.67;;
14975;SDS011;7584;60.468;25.126;2022-10-13T15:34:34;5.67;;;1.57;;
14975;SDS011;7584;60.468;25.126;2022-10-13T15:36:59;6.20;;;1.80;;
14975;SDS011;7584;60.468;25.126;2022-10-13T15:39:24;5.30;;;1.77;;
14975;SDS011;7584;60.468;25.126;2022-10-13T15:41:49;8.83;;;1.97;;
14975;SDS011;7584;60.468;25.126;2022-10-13T15:44:15;7.97;;;1.90;;
14975;SDS011;7584;60.468;25.126;2022-10-13T15:46:43;4.73;;;1.80;;
14975;SDS011;7584;60.468;25.126;2022-10-13T15:49:08;4.87;;;1.77;;
14975;SDS011;7584;60.468;25.126;2022-10-13T15:51:34;10.07;;;1.53;;
14975;SDS011;7584;60.468;25.126;2022-10-13T15:53:59;4.30;;;1.67;;
14975;SDS011;7584;60.468;25.126;2022-10-13T15:56:24;9.57;;;2.63;;
14975;SDS011;7584;60.468;25.126;2022-10-13T15:58:50;4.50;;;1.80;;
14975;SDS011;7584;60.468;25.126;2022-10-13T16:01:15;6.57;;;1.83;;
14975;SDS011;7584;60.468;25.126;2022-10-13T16:03:40;5.83;;;2.20;;
14975;SDS011;7584;60.468;25.126;2022-10-13T16:06:07;12.83;;;3.20;;
14975;SDS011;7584;60.468;25.126;2022-10-13T16:08:36;6.40;;;2.73;;
14975;SDS011;7584;60.468;25.126;2022-10-13T16:11:10;10.20;;;3.23;;
14975;SDS011;7584;60.468;25.126;2022-10-13T16:13:36;12.97;;;3.90;;
14975;SDS011;7584;60.468;25.126;2022-10-13T16:16:01;5.63;;;3.53;;
14975;SDS011;7584;60.468;25.126;2022-10-13T16:18:27;6.63;;;3.20;;
14975;SDS011;7584;60.468;25.126;2022-10-13T16:20:53;9.70;;;3.80;;
14975;SDS011;7584;60.468;25.126;2022-10-13T16:23:18;7.60;;;3.00;;
14975;SDS011;7584;60.468;25.126;2022-10-13T16:25:43;5.57;;;1.90;;
14975;SDS011;7584;60.468;25.126;2022-10-13T16:28:09;11.40;;;2.97;;
14975;SDS011;7584;60.468;25.126;2022-10-13T16:30:35;7.30;;;2.53;;
14975;SDS011;7584;60.468;25.126;2022-10-13T16:33:00;8.93;;;2.50;;
14975;SDS011;7584;60.468;25.126;2022-10-13T16:35:25;5.30;;;2.33;;
14975;SDS011;7584;60.468;25.126;2022-10-13T16:37:51;6.73;;;2.20;;
14975;SDS011;7584;60.468;25.126;2022-10-13T16:40:16;4.87;;;2.17;;
14975;SDS011;7584;60.468;25.126;2022-10-13T16:42:41;9.23;;;2.37;;